sensor_id;sensor_type;location;lat;lon;timestamp;pressure;altitude;pressure_sealevel;temperature;humidity
77737;BME280;66903;59.926;30.404;2024-03-25T00:04:23;99479.94;;;6.03;58.11
77737;BME280;66903;59.926;30.404;2024-03-25T00:09:34;99473.94;;;6.06;57.27
77737;BME280;66903;59.926;30.404;2024-03-25T00:14:45;99492.25;;;6.14;57.75
77737;BME280;66903;59.926;30.404;2024-03-25T00:19:56;99518.88;;;6.28;57.45
77737;BME280;66903;59.926;30.404;2024-03-25T00:25:08;99487.78;;;6.19;57.45
77737;BME280;66903;59.926;30.404;2024-03-25T00:30:19;99521.81;;;6.39;57.09
77737;BME280;66903;59.926;30.404;2024-03-25T00:35:31;99521.16;;;6.44;57.83
77737;BME280;66903;59.926;30.404;2024-03-25T00:40:41;99534.13;;;6.50;57.18
77737;BME280;66903;59.926;30.404;2024-03-25T00:45:52;99524.34;;;6.41;57.36
77737;BME280;66903;59.926;30.404;2024-03-25T00:51:03;99516.09;;;6.28;57.29
77737;BME280;66903;59.926;30.404;2024-03-25T00:56:14;99520.59;;;6.22;58.15
77737;BME280;66903;59.926;30.404;2024-03-25T01:01:25;99527.81;;;6.23;58.64
77737;BME280;66903;59.926;30.404;2024-03-25T01:06:36;99529.59;;;6.05;58.49
77737;BME280;66903;59.926;30.404;2024-03-25T01:11:48;99454.66;;;5.54;58.79
77737;BME280;66903;59.926;30.404;2024-03-25T01:16:59;99536.44;;;5.89;58.92
77737;BME280;66903;59.926;30.404;2024-03-25T01:22:10;99534.94;;;6.00;59.02
77737;BME280;66903;59.926;30.404;2024-03-25T01:27:21;99538.16;;;5.97;59.04
77737;BME280;66903;59.926;30.404;2024-03-25T01:32:32;99496.78;;;5.82;59.25
77737;BME280;66903;59.926;30.404;2024-03-25T01:37:43;99538.13;;;6.03;59.41
77737;BME280;66903;59.926;30.404;2024-03-25T01:42:58;99498.28;;;5.85;59.89
77737;BME280;66903;59.926;30.404;2024-03-25T01:48:10;99519.38;;;5.92;58.42
77737;BME280;66903;59.926;30.404;2024-03-25T01:53:24;99537.03;;;6.04;59.04
77737;BME280;66903;59.926;30.404;2024-03-25T01:58:35;99534.47;;;6.09;58.52
77737;BME280;66903;59.926;30.404;2024-03-25T02:03:47;99522.34;;;6.04;58.88
77737;BME280;66903;59.926;30.404;2024-03-25T02:08:58;99517.69;;;5.85;59.27
77737;BME280;66903;59.926;30.404;2024-03-25T02:14:10;99536.00;;;5.99;59.53
77737;BME280;66903;59.926;30.404;2024-03-25T02:19:22;99468.69;;;5.65;59.58
77737;BME280;66903;59.926;30.404;2024-03-25T02:24:34;99508.94;;;5.94;59.37
77737;BME280;66903;59.926;30.404;2024-03-25T02:29:46;99535.97;;;6.12;59.52
77737;BME280;66903;59.926;30.404;2024-03-25T02:34:57;99531.91;;;6.08;58.80
77737;BME280;66903;59.926;30.404;2024-03-25T02:40:09;99516.84;;;5.91;59.14
77737;BME280;66903;59.926;30.404;2024-03-25T02:45:22;99566.88;;;6.15;59.11
77737;BME280;66903;59.926;30.404;2024-03-25T02:50:33;99556.22;;;6.12;59.59
77737;BME280;66903;59.926;30.404;2024-03-25T02:55:44;99557.28;;;6.18;59.42
77737;BME280;66903;59.926;30.404;2024-03-25T03:00:55;99577.31;;;6.26;58.95
77737;BME280;66903;59.926;30.404;2024-03-25T03:06:06;99581.13;;;6.32;59.53
77737;BME280;66903;59.926;30.404;2024-03-25T03:11:17;99548.53;;;6.21;59.52
77737;BME280;66903;59.926;30.404;2024-03-25T03:16:28;99573.88;;;6.31;59.53
77737;BME280;66903;59.926;30.404;2024-03-25T03:21:39;99587.31;;;6.27;58.98
77737;BME280;66903;59.926;30.404;2024-03-25T03:26:51;99569.63;;;6.22;59.68
77737;BME280;66903;59.926;30.404;2024-03-25T03:32:02;99587.94;;;6.36;59.17
77737;BME280;66903;59.926;30.404;2024-03-25T03:37:13;99583.44;;;6.41;59.08
77737;BME280;66903;59.926;30.404;2024-03-25T03:42:24;99604.97;;;6.39;59.44
77737;BME280;66903;59.926;30.404;2024-03-25T03:47:35;99602.03;;;6.28;59.02
77737;BME280;66903;59.926;30.404;2024-03-25T03:52:46;99620.56;;;6.34;59.77
77737;BME280;66903;59.926;30.404;2024-03-25T03:57:56;99572.88;;;6.12;59.07
77737;BME280;66903;59.926;30.404;2024-03-25T04:03:07;99588.88;;;6.04;59.74
77737;BME280;66903;59.926;30.404;2024-03-25T04:08:19;99573.34;;;5.90;59.19
77737;BME280;66903;59.926;30.404;2024-03-25T04:13:30;99595.25;;;5.85;60.09
77737;BME280;66903;59.926;30.404;2024-03-25T04:18:41;99626.81;;;5.90;59.99
77737;BME280;66903;59.926;30.404;2024-03-25T04:23:53;99619.13;;;5.86;59.80
77737;BME280;66903;59.926;30.404;2024-03-25T04:29:04;99641.75;;;5.83;60.66
77737;BME280;66903;59.926;30.404;2024-03-25T04:34:15;99605.47;;;5.58;60.73
77737;BME280;66903;59.926;30.404;2024-03-25T04:39:26;99615.88;;;5.49;60.71
77737;BME280;66903;59.926;30.404;2024-03-25T04:44:37;99622.72;;;5.47;61.25
77737;BME280;66903;59.926;30.404;2024-03-25T04:49:48;99670.00;;;5.58;61.44
77737;BME280;66903;59.926;30.404;2024-03-25T04:54:59;99671.94;;;5.64;61.11
77737;BME280;66903;59.926;30.404;2024-03-25T05:00:10;99672.13;;;5.56;61.29
77737;BME280;66903;59.926;30.404;2024-03-25T05:05:22;99659.13;;;5.50;61.63
77737;BME280;66903;59.926;30.404;2024-03-25T05:10:34;99635.03;;;5.38;61.10
77737;BME280;66903;59.926;30.404;2024-03-25T05:15:52;99673.84;;;5.64;61.49
77737;BME280;66903;59.926;30.404;2024-03-25T05:21:03;99637.59;;;5.39;61.61
77737;BME280;66903;59.926;30.404;2024-03-25T05:26:17;99680.91;;;5.80;61.74
77737;BME280;66903;59.926;30.404;2024-03-25T05:31:28;99649.13;;;5.62;60.95
77737;BME280;66903;59.926;30.404;2024-03-25T05:36:39;99707.16;;;5.84;60.79
77737;BME280;66903;59.926;30.404;2024-03-25T05:41:50;99672.97;;;5.63;61.14
77737;BME280;66903;59.926;30.404;2024-03-25T05:47:01;99684.72;;;5.59;61.44
77737;BME280;66903;59.926;30.404;2024-03-25T05:52:12;99729.25;;;5.64;61.98
77737;BME280;66903;59.926;30.404;2024-03-25T05:57:23;99732.66;;;5.59;61.75
77737;BME280;66903;59.926;30.404;2024-03-25T06:02:34;99719.19;;;5.56;61.82
77737;BME280;66903;59.926;30.404;2024-03-25T06:07:45;99699.56;;;5.38;61.85
77737;BME280;66903;59.926;30.404;2024-03-25T06:12:56;99732.59;;;5.53;62.17
77737;BME280;66903;59.926;30.404;2024-03-25T06:18:07;99714.28;;;5.45;62.93
77737;BME280;66903;59.926;30.404;2024-03-25T06:23:30;99728.78;;;5.54;62.96
77737;BME280;66903;59.926;30.404;2024-03-25T06:28:41;99764.44;;;5.77;62.75
77737;BME280;66903;59.926;30.404;2024-03-25T06:33:53;99770.19;;;5.82;62.51
77737;BME280;66903;59.926;30.404;2024-03-25T06:39:22;99767.81;;;5.65;62.45
77737;BME280;66903;59.926;30.404;2024-03-25T06:44:34;99757.78;;;5.58;63.02
77737;BME280;66903;59.926;30.404;2024-03-25T06:49:45;99804.56;;;5.94;63.32
77737;BME280;66903;59.926;30.404;2024-03-25T06:54:56;99790.09;;;5.98;62.43
77737;BME280;66903;59.926;30.404;2024-03-25T07:00:07;99773.00;;;5.88;61.84
77737;BME280;66903;59.926;30.404;2024-03-25T07:05:23;99782.84;;;5.97;62.39
77737;BME280;66903;59.926;30.404;2024-03-25T07:10:34;99777.94;;;6.06;62.67
77737;BME280;66903;59.926;30.404;2024-03-25T07:15:46;99838.81;;;6.53;62.16
77737;BME280;66903;59.926;30.404;2024-03-25T07:20:57;99834.53;;;6.57;61.22
77737;BME280;66903;59.926;30.404;2024-03-25T07:26:08;99824.28;;;6.64;61.86
77737;BME280;66903;59.926;30.404;2024-03-25T07:31:19;99788.03;;;6.46;61.49
77737;BME280;66903;59.926;30.404;2024-03-25T07:36:30;99847.56;;;6.63;61.52
77737;BME280;66903;59.926;30.404;2024-03-25T07:41:44;99792.28;;;6.42;61.04
77737;BME280;66903;59.926;30.404;2024-03-25T07:46:55;99827.91;;;6.64;61.21
77737;BME280;66903;59.926;30.404;2024-03-25T07:52:06;99875.53;;;6.81;61.31
77737;BME280;66903;59.926;30.404;2024-03-25T07:57:17;99870.59;;;6.96;61.60
77737;BME280;66903;59.926;30.404;2024-03-25T08:02:29;99874.00;;;7.11;61.33
77737;BME280;66903;59.926;30.404;2024-03-25T08:07:40;99836.00;;;6.92;60.66
77737;BME280;66903;59.926;30.404;2024-03-25T08:12:51;99885.75;;;7.07;60.82
77737;BME280;66903;59.926;30.404;2024-03-25T08:18:02;99884.47;;;6.96;60.71
77737;BME280;66903;59.926;30.404;2024-03-25T08:23:13;99899.41;;;7.08;60.50
77737;BME280;66903;59.926;30.404;2024-03-25T08:28:26;99902.19;;;7.15;60.72
77737;BME280;66903;59.926;30.404;2024-03-25T08:33:37;99913.31;;;7.21;60.74
77737;BME280;66903;59.926;30.404;2024-03-25T08:38:48;99908.59;;;7.15;60.26
77737;BME280;66903;59.926;30.404;2024-03-25T08:43:59;99880.63;;;6.97;60.13
77737;BME280;66903;59.926;30.404;2024-03-25T08:49:10;99893.44;;;7.05;60.37
77737;BME280;66903;59.926;30.404;2024-03-25T08:54:21;99879.97;;;7.08;60.08
77737;BME280;66903;59.926;30.404;2024-03-25T08:59:32;99896.00;;;7.06;59.28
77737;BME280;66903;59.926;30.404;2024-03-25T09:04:43;99903.06;;;7.09;59.25
77737;BME280;66903;59.926;30.404;2024-03-25T09:09:54;99944.69;;;7.28;60.11
77737;BME280;66903;59.926;30.404;2024-03-25T09:15:24;99949.38;;;7.34;60.13
77737;BME280;66903;59.926;30.404;2024-03-25T09:20:35;99941.47;;;7.18;59.24
77737;BME280;66903;59.926;30.404;2024-03-25T09:25:55;99949.59;;;7.20;59.92
77737;BME280;66903;59.926;30.404;2024-03-25T09:31:06;99912.22;;;7.22;60.10
77737;BME280;66903;59.926;30.404;2024-03-25T09:36:17;99946.38;;;7.55;59.44
77737;BME280;66903;59.926;30.404;2024-03-25T09:41:29;99943.13;;;7.58;58.67
77737;BME280;66903;59.926;30.404;2024-03-25T09:46:45;99952.13;;;7.54;58.29
77737;BME280;66903;59.926;30.404;2024-03-25T09:51:56;99975.22;;;7.54;59.04
77737;BME280;66903;59.926;30.404;2024-03-25T09:57:08;99934.19;;;7.30;59.35
77737;BME280;66903;59.926;30.404;2024-03-25T10:02:19;99946.41;;;7.42;58.78
77737;BME280;66903;59.926;30.404;2024-03-25T10:07:30;99946.38;;;7.49;58.68
77737;BME280;66903;59.926;30.404;2024-03-25T10:12:41;99990.38;;;7.71;58.92
77737;BME280;66903;59.926;30.404;2024-03-25T10:17:52;99953.00;;;7.41;58.72
77737;BME280;66903;59.926;30.404;2024-03-25T10:23:03;99942.78;;;7.35;58.82
77737;BME280;66903;59.926;30.404;2024-03-25T10:28:14;99969.03;;;7.46;58.75
77737;BME280;66903;59.926;30.404;2024-03-25T10:33:26;99999.78;;;7.57;58.47
77737;BME280;66903;59.926;30.404;2024-03-25T10:38:37;99995.94;;;7.52;58.41
77737;BME280;66903;59.926;30.404;2024-03-25T10:43:49;100015.81;;;7.55;57.91
77737;BME280;66903;59.926;30.404;2024-03-25T10:54:22;100031.00;;;7.40;58.72
77737;BME280;66903;59.926;30.404;2024-03-25T10:59:35;100020.72;;;7.27;59.29
77737;BME280;66903;59.926;30.404;2024-03-25T11:04:51;100025.66;;;7.45;59.25
77737;BME280;66903;59.926;30.404;2024-03-25T11:10:08;99985.91;;;7.44;58.25
77737;BME280;66903;59.926;30.404;2024-03-25T11:15:19;100048.94;;;7.76;58.30
77737;BME280;66903;59.926;30.404;2024-03-25T11:20:30;99990.38;;;7.58;57.86
77737;BME280;66903;59.926;30.404;2024-03-25T11:25:41;100028.22;;;7.79;57.68
77737;BME280;66903;59.926;30.404;2024-03-25T11:30:53;100046.81;;;7.92;58.11
77737;BME280;66903;59.926;30.404;2024-03-25T11:36:04;100042.75;;;7.88;57.81
77737;BME280;66903;59.926;30.404;2024-03-25T11:41:16;100034.19;;;7.69;57.65
77737;BME280;66903;59.926;30.404;2024-03-25T11:46:27;100024.81;;;7.57;57.36
77737;BME280;66903;59.926;30.404;2024-03-25T11:51:38;100025.03;;;7.56;58.17
77737;BME280;66903;59.926;30.404;2024-03-25T11:56:52;100070.31;;;7.69;57.45
77737;BME280;66903;59.926;30.404;2024-03-25T12:02:06;100081.22;;;7.64;57.33
77737;BME280;66903;59.926;30.404;2024-03-25T12:07:17;100060.09;;;7.63;58.08
77737;BME280;66903;59.926;30.404;2024-03-25T12:12:28;100082.72;;;7.86;57.92
77737;BME280;66903;59.926;30.404;2024-03-25T12:17:40;100041.44;;;7.90;56.96
77737;BME280;66903;59.926;30.404;2024-03-25T12:22:51;100044.22;;;7.97;56.21
77737;BME280;66903;59.926;30.404;2024-03-25T12:28:08;100094.47;;;8.28;56.68
77737;BME280;66903;59.926;30.404;2024-03-25T12:33:20;100089.91;;;8.53;56.46
77737;BME280;66903;59.926;30.404;2024-03-25T12:38:31;100053.50;;;8.54;56.05
77737;BME280;66903;59.926;30.404;2024-03-25T12:43:43;100092.31;;;8.87;55.38
77737;BME280;66903;59.926;30.404;2024-03-25T12:48:54;100089.81;;;8.72;55.56
77737;BME280;66903;59.926;30.404;2024-03-25T12:54:05;100107.81;;;8.70;55.72
77737;BME280;66903;59.926;30.404;2024-03-25T12:59:16;100105.25;;;8.62;55.85
77737;BME280;66903;59.926;30.404;2024-03-25T13:04:27;100116.22;;;8.50;55.97
77737;BME280;66903;59.926;30.404;2024-03-25T13:09:38;100105.72;;;8.59;56.32
77737;BME280;66903;59.926;30.404;2024-03-25T13:14:49;100104.00;;;8.64;56.37
77737;BME280;66903;59.926;30.404;2024-03-25T13:20:00;100119.34;;;8.80;55.66
77737;BME280;66903;59.926;30.404;2024-03-25T13:25:11;100116.53;;;8.86;55.50
77737;BME280;66903;59.926;30.404;2024-03-25T13:30:22;100128.25;;;9.02;55.17
77737;BME280;66903;59.926;30.404;2024-03-25T13:35:37;100131.22;;;9.07;55.52
77737;BME280;66903;59.926;30.404;2024-03-25T13:40:48;100102.59;;;8.93;55.04
77737;BME280;66903;59.926;30.404;2024-03-25T13:45:59;100096.84;;;8.88;54.85
77737;BME280;66903;59.926;30.404;2024-03-25T13:51:10;100117.38;;;8.87;54.85
77737;BME280;66903;59.926;30.404;2024-03-25T13:56:21;100150.16;;;8.85;54.84
77737;BME280;66903;59.926;30.404;2024-03-25T14:01:32;100137.06;;;8.92;55.00
77737;BME280;66903;59.926;30.404;2024-03-25T14:06:43;100160.03;;;8.87;54.86
77737;BME280;66903;59.926;30.404;2024-03-25T14:11:56;100112.53;;;8.69;55.00
77737;BME280;66903;59.926;30.404;2024-03-25T14:17:07;100116.56;;;8.80;54.61
77737;BME280;66903;59.926;30.404;2024-03-25T14:22:18;100120.66;;;8.77;54.70
77737;BME280;66903;59.926;30.404;2024-03-25T14:27:29;100148.84;;;8.94;54.50
77737;BME280;66903;59.926;30.404;2024-03-25T14:32:40;100138.63;;;8.75;54.54
77737;BME280;66903;59.926;30.404;2024-03-25T14:37:51;100184.00;;;8.88;54.40
77737;BME280;66903;59.926;30.404;2024-03-25T14:43:01;100156.69;;;8.59;54.78
77737;BME280;66903;59.926;30.404;2024-03-25T14:48:12;100192.63;;;8.61;54.53
77737;BME280;66903;59.926;30.404;2024-03-25T14:53:23;100158.66;;;8.33;55.12
77737;BME280;66903;59.926;30.404;2024-03-25T14:58:34;100182.41;;;8.35;54.85
77737;BME280;66903;59.926;30.404;2024-03-25T15:03:45;100211.72;;;8.38;55.83
77737;BME280;66903;59.926;30.404;2024-03-25T15:08:57;100214.94;;;8.48;55.33
77737;BME280;66903;59.926;30.404;2024-03-25T15:14:08;100140.47;;;8.11;54.91
77737;BME280;66903;59.926;30.404;2024-03-25T15:19:19;100224.97;;;8.36;54.94
77737;BME280;66903;59.926;30.404;2024-03-25T15:24:30;100238.69;;;8.44;54.90
77737;BME280;66903;59.926;30.404;2024-03-25T15:29:41;100202.06;;;8.21;54.32
77737;BME280;66903;59.926;30.404;2024-03-25T15:34:52;100238.91;;;8.29;54.74
77737;BME280;66903;59.926;30.404;2024-03-25T15:40:04;100240.19;;;8.27;54.65
77737;BME280;66903;59.926;30.404;2024-03-25T15:45:15;100242.97;;;8.33;54.65
77737;BME280;66903;59.926;30.404;2024-03-25T15:50:26;100244.44;;;8.23;54.87
77737;BME280;66903;59.926;30.404;2024-03-25T15:55:37;100238.84;;;8.10;54.51
77737;BME280;66903;59.926;30.404;2024-03-25T16:00:48;100255.38;;;8.24;55.29
77737;BME280;66903;59.926;30.404;2024-03-25T16:05:59;100225.16;;;8.08;54.46
77737;BME280;66903;59.926;30.404;2024-03-25T16:11:16;100225.16;;;8.02;54.84
77737;BME280;66903;59.926;30.404;2024-03-25T16:16:28;100242.28;;;8.05;54.45
77737;BME280;66903;59.926;30.404;2024-03-25T16:21:39;100281.47;;;8.23;54.68
77737;BME280;66903;59.926;30.404;2024-03-25T16:26:50;100267.97;;;8.07;54.58
77737;BME280;66903;59.926;30.404;2024-03-25T16:32:01;100308.84;;;8.20;54.47
77737;BME280;66903;59.926;30.404;2024-03-25T16:37:12;100279.72;;;8.09;54.38
77737;BME280;66903;59.926;30.404;2024-03-25T16:42:23;100250.78;;;7.77;54.67
77737;BME280;66903;59.926;30.404;2024-03-25T16:47:34;100312.41;;;8.01;54.57
77737;BME280;66903;59.926;30.404;2024-03-25T16:52:46;100312.19;;;7.96;54.70
77737;BME280;66903;59.926;30.404;2024-03-25T16:57:57;100308.81;;;8.00;55.40
77737;BME280;66903;59.926;30.404;2024-03-25T17:03:08;100313.94;;;8.10;55.25
77737;BME280;66903;59.926;30.404;2024-03-25T17:08:19;100316.09;;;8.14;54.94
77737;BME280;66903;59.926;30.404;2024-03-25T17:13:30;100295.34;;;8.04;54.25
77737;BME280;66903;59.926;30.404;2024-03-25T17:18:41;100301.94;;;7.96;55.04
77737;BME280;66903;59.926;30.404;2024-03-25T17:23:52;100289.94;;;7.96;54.58
77737;BME280;66903;59.926;30.404;2024-03-25T17:29:03;100332.56;;;8.16;54.39
77737;BME280;66903;59.926;30.404;2024-03-25T17:34:17;100295.72;;;7.88;54.61
77737;BME280;66903;59.926;30.404;2024-03-25T17:39:29;100349.88;;;8.11;54.80
77737;BME280;66903;59.926;30.404;2024-03-25T17:44:40;100310.22;;;7.83;54.95
77737;BME280;66903;59.926;30.404;2024-03-25T17:49:51;100348.78;;;7.99;54.65
77737;BME280;66903;59.926;30.404;2024-03-25T17:55:02;100319.44;;;7.90;54.88
77737;BME280;66903;59.926;30.404;2024-03-25T18:00:16;100363.78;;;8.11;54.61
77737;BME280;66903;59.926;30.404;2024-03-25T18:05:27;100355.00;;;8.08;54.47
77737;BME280;66903;59.926;30.404;2024-03-25T18:10:39;100323.53;;;7.94;54.64
77737;BME280;66903;59.926;30.404;2024-03-25T18:15:53;100362.53;;;8.14;54.62
77737;BME280;66903;59.926;30.404;2024-03-25T18:21:04;100334.88;;;7.99;54.28
77737;BME280;66903;59.926;30.404;2024-03-25T18:26:15;100371.72;;;8.14;54.50
77737;BME280;66903;59.926;30.404;2024-03-25T18:31:26;100365.91;;;8.03;53.65
77737;BME280;66903;59.926;30.404;2024-03-25T18:36:38;100390.69;;;7.91;54.38
77737;BME280;66903;59.926;30.404;2024-03-25T18:41:48;100362.81;;;7.78;54.46
77737;BME280;66903;59.926;30.404;2024-03-25T18:46:59;100364.09;;;7.75;54.19
77737;BME280;66903;59.926;30.404;2024-03-25T18:52:10;100393.47;;;7.91;53.65
77737;BME280;66903;59.926;30.404;2024-03-25T18:57:21;100405.63;;;7.90;54.01
77737;BME280;66903;59.926;30.404;2024-03-25T19:02:33;100383.56;;;7.75;54.41
77737;BME280;66903;59.926;30.404;2024-03-25T19:07:47;100421.69;;;7.88;53.36
77737;BME280;66903;59.926;30.404;2024-03-25T19:12:58;100440.59;;;7.37;53.70
77737;BME280;66903;59.926;30.404;2024-03-25T19:18:09;100424.28;;;7.21;54.20
77737;BME280;66903;59.926;30.404;2024-03-25T19:23:20;100403.56;;;6.96;54.49
77737;BME280;66903;59.926;30.404;2024-03-25T19:28:31;100456.53;;;7.22;54.45
77737;BME280;66903;59.926;30.404;2024-03-25T19:33:42;100459.91;;;7.18;54.44
77737;BME280;66903;59.926;30.404;2024-03-25T19:38:53;100449.50;;;7.26;54.51
77737;BME280;66903;59.926;30.404;2024-03-25T19:44:04;100445.78;;;7.40;54.51
77737;BME280;66903;59.926;30.404;2024-03-25T19:49:15;100413.41;;;7.26;53.97
77737;BME280;66903;59.926;30.404;2024-03-25T19:54:26;100459.91;;;7.45;54.00
77737;BME280;66903;59.926;30.404;2024-03-25T19:59:37;100453.88;;;7.35;54.43
77737;BME280;66903;59.926;30.404;2024-03-25T20:04:48;100466.44;;;7.31;54.00
77737;BME280;66903;59.926;30.404;2024-03-25T20:10:01;100460.28;;;7.15;54.06
77737;BME280;66903;59.926;30.404;2024-03-25T20:15:12;100404.97;;;6.86;54.94
77737;BME280;66903;59.926;30.404;2024-03-25T20:20:23;100381.94;;;6.64;54.51
77737;BME280;66903;59.926;30.404;2024-03-25T20:25:35;100411.97;;;6.82;54.53
77737;BME280;66903;59.926;30.404;2024-03-25T20:30:46;100424.94;;;6.74;54.03
77737;BME280;66903;59.926;30.404;2024-03-25T20:35:57;100460.16;;;6.74;55.16
77737;BME280;66903;59.926;30.404;2024-03-25T20:41:08;100486.84;;;6.75;54.54
77737;BME280;66903;59.926;30.404;2024-03-25T20:46:23;100432.13;;;6.48;55.04
77737;BME280;66903;59.926;30.404;2024-03-25T20:51:38;100477.84;;;6.73;55.14
77737;BME280;66903;59.926;30.404;2024-03-25T20:56:49;100501.50;;;6.90;55.42
77737;BME280;66903;59.926;30.404;2024-03-25T21:02:00;100439.25;;;6.57;54.70
77737;BME280;66903;59.926;30.404;2024-03-25T21:07:11;100491.16;;;6.78;54.63
77737;BME280;66903;59.926;30.404;2024-03-25T21:12:22;100443.06;;;6.49;55.75
77737;BME280;66903;59.926;30.404;2024-03-25T21:17:33;100489.34;;;6.70;54.76
77737;BME280;66903;59.926;30.404;2024-03-25T21:22:44;100498.34;;;6.72;55.09
77737;BME280;66903;59.926;30.404;2024-03-25T21:27:55;100500.47;;;6.70;54.80
77737;BME280;66903;59.926;30.404;2024-03-25T21:33:06;100455.38;;;6.47;55.11
77737;BME280;66903;59.926;30.404;2024-03-25T21:38:17;100515.84;;;6.72;55.05
77737;BME280;66903;59.926;30.404;2024-03-25T21:43:28;100513.72;;;6.74;54.64
77737;BME280;66903;59.926;30.404;2024-03-25T21:48:39;100514.13;;;6.71;54.97
77737;BME280;66903;59.926;30.404;2024-03-25T21:53:50;100513.00;;;6.66;55.04
77737;BME280;66903;59.926;30.404;2024-03-25T21:59:01;100485.69;;;6.48;54.89
77737;BME280;66903;59.926;30.404;2024-03-25T22:04:13;100487.94;;;6.38;55.57
77737;BME280;66903;59.926;30.404;2024-03-25T22:09:24;100547.53;;;6.42;55.18
77737;BME280;66903;59.926;30.404;2024-03-25T22:14:35;100542.75;;;6.36;55.79
77737;BME280;66903;59.926;30.404;2024-03-25T22:19:46;100514.25;;;6.28;55.69
77737;BME280;66903;59.926;30.404;2024-03-25T22:24:57;100494.19;;;6.26;55.88
77737;BME280;66903;59.926;30.404;2024-03-25T22:30:08;100536.91;;;6.46;55.34
77737;BME280;66903;59.926;30.404;2024-03-25T22:35:19;100526.16;;;6.43;56.37
77737;BME280;66903;59.926;30.404;2024-03-25T22:40:30;100552.34;;;6.55;55.25
77737;BME280;66903;59.926;30.404;2024-03-25T22:45:55;100505.41;;;6.18;55.57
77737;BME280;66903;59.926;30.404;2024-03-25T22:51:07;100547.22;;;6.37;55.01
77737;BME280;66903;59.926;30.404;2024-03-25T22:56:18;100563.84;;;6.37;55.55
77737;BME280;66903;59.926;30.404;2024-03-25T23:01:29;100536.44;;;6.28;56.23
77737;BME280;66903;59.926;30.404;2024-03-25T23:06:40;100501.47;;;6.12;55.18
77737;BME280;66903;59.926;30.404;2024-03-25T23:11:51;100530.63;;;6.23;55.50
77737;BME280;66903;59.926;30.404;2024-03-25T23:17:02;100529.19;;;6.12;56.04
77737;BME280;66903;59.926;30.404;2024-03-25T23:22:13;100544.50;;;6.23;55.90
77737;BME280;66903;59.926;30.404;2024-03-25T23:27:24;100573.53;;;6.41;55.60
77737;BME280;66903;59.926;30.404;2024-03-25T23:32:35;100580.97;;;6.41;56.12
77737;BME280;66903;59.926;30.404;2024-03-25T23:37:46;100533.59;;;6.21;55.67
77737;BME280;66903;59.926;30.404;2024-03-25T23:42:58;100583.28;;;6.37;55.79
77737;BME280;66903;59.926;30.404;2024-03-25T23:48:10;100557.47;;;6.22;56.07
77737;BME280;66903;59.926;30.404;2024-03-25T23:53:21;100578.13;;;6.34;56.48
77737;BME280;66903;59.926;30.404;2024-03-25T23:58:32;100566.88;;;6.21;55.55
